Time;durP1;ratioP1;P1;durP2;ratioP2;P2;SDS_P1;SDS_P2;PMS_P1;PMS_P2;Temp;Humidity;BMP_temperature;BMP_pressure;BME280_temperature;BME280_humidity;BME280_pressure;Samples;Min_cycle;Max_cycle;Signal;HPM_P1;HPM_P2
2022/06/26 00:02:18;;;;;;;8.07;3.08;;;;;;;21.14;100.00;98784.66;4416972;32;20087;-71
2022/06/26 00:04:44;;;;;;;4.75;3.03;;;;;;;20.91;100.00;98745.72;4416217;32;20127;-70
2022/06/26 00:07:10;;;;;;;5.28;2.95;;;;;;;20.88;100.00;98754.59;4417291;32;20054;-70
2022/06/26 00:09:36;;;;;;;3.35;3.05;;;;;;;21.17;100.00;98788.66;4416147;32;20453;-71
2022/06/26 00:12:03;;;;;;;6.35;2.87;;;;;;;20.84;100.00;98754.44;4415538;32;20059;-71
2022/06/26 00:14:28;;;;;;;7.37;3.10;;;;;;;21.05;100.00;98790.13;4416577;32;20046;-70
2022/06/26 00:16:54;;;;;;;3.80;3.12;;;;;;;21.03;100.00;98786.12;4415159;32;20310;-70
2022/06/26 00:19:20;;;;;;;2.80;2.60;;;;;;;20.88;100.00;98776.47;4403583;32;20057;-70
2022/06/26 00:21:46;;;;;;;7.60;2.85;;;;;;;21.02;100.00;98798.19;4415535;32;20060;-71
2022/06/26 00:24:12;;;;;;;7.28;3.28;;;;;;;20.95;100.00;98795.94;4416059;32;20059;-70
2022/06/26 00:26:38;;;;;;;9.70;3.12;;;;;;;20.93;100.00;98795.44;4416518;32;20110;-70
2022/06/26 00:29:04;;;;;;;5.47;3.20;;;;;;;20.94;100.00;98794.34;4416922;32;20091;-69
2022/06/26 00:31:30;;;;;;;7.43;3.00;;;;;;;20.89;100.00;98794.50;4416851;32;20475;-70
2022/06/26 00:33:56;;;;;;;3.33;2.85;;;;;;;20.93;100.00;98800.12;4415533;32;20439;-71
2022/06/26 00:36:22;;;;;;;6.18;3.30;;;;;;;20.96;100.00;98797.53;4416061;32;20042;-69
2022/06/26 00:38:47;;;;;;;3.08;2.83;;;;;;;20.89;100.00;98789.03;4416802;32;20393;-70
2022/06/26 00:41:13;;;;;;;3.15;2.85;;;;;;;20.86;100.00;98801.41;4416222;32;20134;-70
2022/06/26 00:43:39;;;;;;;2.62;2.42;;;;;;;20.68;100.00;98756.88;4416307;32;20047;-70
2022/06/26 00:46:05;;;;;;;5.78;2.75;;;;;;;20.93;100.00;98798.19;4415667;32;20150;-70
2022/06/26 00:48:31;;;;;;;9.27;2.58;;;;;;;20.61;100.00;98755.72;4414561;32;20097;-69
2022/06/26 00:50:58;;;;;;;11.00;3.37;;;;;;;20.98;100.00;98806.25;4401929;32;20076;-70
2022/06/26 00:53:24;;;;;;;3.30;2.22;;;;;;;21.00;100.00;98806.72;4416445;32;20064;-70
2022/06/26 00:55:50;;;;;;;2.92;2.72;;;;;;;20.77;100.00;98775.19;4416114;32;20086;-70
2022/06/26 00:58:16;;;;;;;2.75;2.55;;;;;;;20.70;100.00;98763.97;4400939;32;20050;-69
2022/06/26 01:00:42;;;;;;;6.40;2.87;;;;;;;20.61;100.00;98756.50;4413292;32;20038;-69
2022/06/26 01:03:08;;;;;;;6.22;2.50;;;;;;;20.84;100.00;98800.16;4416380;32;20085;-69
2022/06/26 01:05:34;;;;;;;2.65;2.30;;;;;;;20.86;100.00;98800.62;4401135;32;20042;-69
2022/06/26 01:08:00;;;;;;;4.97;3.35;;;;;;;20.60;100.00;98765.84;4401139;32;20034;-68
2022/06/26 01:10:27;;;;;;;3.10;2.90;;;;;;;20.75;100.00;98797.41;4401360;32;20065;-69
2022/06/26 01:12:54;;;;;;;3.22;2.45;;;;;;;20.72;100.00;98798.06;4399346;32;20486;-71
2022/06/26 01:15:21;;;;;;;3.00;2.70;;;;;;;20.76;100.00;98807.22;4400509;32;20105;-70
2022/06/26 01:17:48;;;;;;;7.75;2.80;;;;;;;20.53;100.00;98764.72;4401091;32;20135;-70
2022/06/26 01:20:14;;;;;;;2.75;2.50;;;;;;;20.61;100.00;98804.94;4400872;32;20084;-70
2022/06/26 01:22:40;;;;;;;7.80;2.85;;;;;;;20.58;100.00;98803.69;4400942;32;20081;-69
2022/06/26 01:25:06;;;;;;;6.00;2.65;;;;;;;20.36;100.00;98757.31;4397764;32;20039;-70
2022/06/26 01:27:41;;;;;;;3.28;2.45;;;;;;;20.49;100.00;98792.72;4400420;32;20796;-70
2022/06/26 01:30:08;;;;;;;3.62;2.85;;;;;;;20.26;100.00;98759.28;4400550;32;20376;-70
2022/06/26 01:32:34;;;;;;;5.25;2.70;;;;;;;20.57;100.00;98791.13;4400683;32;20043;-70
2022/06/26 01:35:00;;;;;;;3.87;2.35;;;;;;;20.57;100.00;98799.31;4400398;32;20057;-71
2022/06/26 01:37:27;;;;;;;5.65;2.45;;;;;;;20.58;100.00;98790.00;4398998;32;20452;-69
2022/06/26 01:39:53;;;;;;;6.10;2.60;;;;;;;20.58;100.00;98797.37;4400628;32;20393;-70
2022/06/26 01:42:19;;;;;;;9.18;2.83;;;;;;;20.29;100.00;98766.81;4412912;32;20101;-69
2022/06/26 01:44:45;;;;;;;4.57;3.12;;;;;;;20.54;100.00;98799.97;4414111;32;20426;-68
2022/06/26 01:47:12;;;;;;;6.68;2.33;;;;;;;20.56;100.00;98797.69;4415555;32;20038;-71
2022/06/26 01:49:38;;;;;;;6.75;3.08;;;;;;;20.57;100.00;98796.59;4414053;32;20057;-69
2022/06/26 01:52:04;;;;;;;8.40;3.25;;;;;;;20.45;100.00;98801.88;4415808;32;20155;-69
2022/06/26 01:54:31;;;;;;;3.30;2.60;;;;;;;20.23;100.00;98768.09;4415720;32;20073;-69
2022/06/26 01:56:56;;;;;;;4.25;2.85;;;;;;;20.47;100.00;98813.28;4415341;32;20364;-71
2022/06/26 01:59:23;;;;;;;9.57;2.75;;;;;;;20.20;100.00;98763.28;4415849;32;20069;-69
2022/06/26 02:01:49;;;;;;;3.97;2.80;;;;;;;20.35;100.00;98808.47;4414019;32;20065;-70
2022/06/26 02:04:16;;;;;;;3.72;2.47;;;;;;;20.33;100.00;98794.31;4415654;32;20401;-70
2022/06/26 02:06:43;;;;;;;9.13;3.22;;;;;;;20.06;100.00;98757.16;4415517;32;20064;-70
2022/06/26 02:13:36;;;;;;;4.45;2.40;;;;;;;20.42;100.00;98808.00;4415093;32;20434;-71
2022/06/26 02:14:45;;;;;;;13.40;4.28;;;;;;;20.30;100.00;98806.69;4413402;32;20038;-71
2022/06/26 02:17:11;;;;;;;12.32;2.42;;;;;;;20.24;100.00;98807.97;4413099;32;20038;-70
2022/06/26 02:19:37;;;;;;;11.80;3.08;;;;;;;20.15;100.00;98812.59;4414667;32;20061;-70
2022/06/26 02:22:03;;;;;;;3.53;2.70;;;;;;;20.19;100.00;98810.88;4415313;32;20092;-70
2022/06/26 02:24:29;;;;;;;3.28;3.00;;;;;;;20.16;100.00;98808.75;4414241;32;20042;-70
2022/06/26 02:26:55;;;;;;;4.32;2.50;;;;;;;20.12;100.00;98816.00;4414780;32;20045;-72
2022/06/26 02:29:21;;;;;;;6.62;2.70;;;;;;;20.16;100.00;98819.69;4414053;32;20072;-70
2022/06/26 02:31:46;;;;;;;4.05;2.87;;;;;;;20.06;100.00;98822.75;4414998;32;20038;-70
2022/06/26 02:34:13;;;;;;;6.72;3.15;;;;;;;19.98;100.00;98816.12;4414887;32;20042;-70
2022/06/26 02:36:42;;;;;;;5.87;3.20;;;;;;;19.91;100.00;98824.78;4417424;32;20087;-71
2022/06/26 02:39:08;;;;;;;2.92;2.60;;;;;;;19.67;100.00;98797.03;4417356;32;20371;-70
2022/06/26 02:41:34;;;;;;;3.00;2.70;;;;;;;19.90;100.00;98825.09;4418097;32;20091;-70
2022/06/26 02:44:00;;;;;;;3.10;2.67;;;;;;;19.59;100.00;98788.50;4418246;32;20031;-70
2022/06/26 02:46:26;;;;;;;7.62;2.53;;;;;;;19.81;100.00;98838.72;4418155;32;20046;-69
2022/06/26 02:48:53;;;;;;;3.85;3.30;;;;;;;19.71;100.00;98833.53;4417749;32;20178;-70
2022/06/26 02:51:19;;;;;;;3.05;2.72;;;;;;;19.39;100.00;98789.03;4415530;32;20037;-69
2022/06/26 02:53:45;;;;;;;2.83;2.62;;;;;;;19.37;100.00;98802.19;4418251;32;20440;-70
2022/06/26 02:56:11;;;;;;;3.22;3.03;;;;;;;19.56;100.00;98832.81;4418089;32;20043;-68
2022/06/26 02:58:39;;;;;;;9.00;3.20;;;;;;;19.38;100.00;98798.34;4418006;32;20042;-70
2022/06/26 03:01:06;;;;;;;4.65;3.33;;;;;;;19.59;100.00;98843.13;4416992;32;20432;-69
2022/06/26 03:03:34;;;;;;;6.82;2.70;;;;;;;19.62;100.00;98840.88;4415906;32;20050;-70
2022/06/26 03:06:00;;;;;;;3.40;3.10;;;;;;;19.59;100.00;98843.13;4416565;32;20054;-69
2022/06/26 03:08:26;;;;;;;3.62;3.17;;;;;;;19.41;100.00;98830.47;4416593;32;20382;-69
2022/06/26 03:10:53;;;;;;;5.87;2.97;;;;;;;19.51;100.00;98846.56;4416163;32;20179;-69
2022/06/26 03:13:20;;;;;;;10.00;2.85;;;;;;;19.43;100.00;98855.53;4414910;32;20082;-71
2022/06/26 03:15:46;;;;;;;7.53;3.17;;;;;;;19.45;100.00;98847.84;4416807;32;20350;-69
2022/06/26 03:18:12;;;;;;;7.40;3.12;;;;;;;19.42;100.00;98848.47;4417849;32;20428;-69
2022/06/26 03:20:40;;;;;;;6.45;3.30;;;;;;;19.52;100.00;98853.66;4417766;32;20376;-70
2022/06/26 03:23:08;;;;;;;8.77;2.85;;;;;;;19.29;100.00;98811.13;4416222;32;20180;-70
2022/06/26 03:25:34;;;;;;;6.15;3.40;;;;;;;19.53;100.00;98855.28;4417915;32;20427;-70
2022/06/26 03:28:00;;;;;;;5.90;3.35;;;;;;;19.49;100.00;98853.50;4417262;32;20054;-71
2022/06/26 03:30:26;;;;;;;7.68;3.33;;;;;;;19.50;100.00;98861.38;4417012;32;20056;-69
2022/06/26 03:32:52;;;;;;;6.97;3.35;;;;;;;19.51;100.00;98862.16;4417773;32;20061;-69
2022/06/26 03:35:25;;;;;;;4.72;3.50;;;;;;;19.48;100.00;98873.72;4416202;32;20429;-70
2022/06/26 03:37:52;;;;;;;5.85;3.28;;;;;;;19.18;100.00;98838.69;4417443;32;20057;-70
2022/06/26 03:40:18;;;;;;;9.52;3.40;;;;;;;19.40;100.00;98873.34;4417596;32;20049;-70
2022/06/26 03:42:44;;;;;;;6.45;4.00;;;;;;;19.40;100.00;98872.53;4416989;32;20034;-69
2022/06/26 03:45:10;;;;;;;3.10;2.83;;;;;;;19.37;100.00;98873.97;4417648;32;20423;-69
2022/06/26 03:47:36;;;;;;;7.62;3.97;;;;;;;19.46;100.00;98876.75;4414693;32;20521;-69
2022/06/26 03:50:03;;;;;;;9.90;3.50;;;;;;;19.18;100.00;98844.16;4417593;32;20042;-70
2022/06/26 03:52:30;;;;;;;16.80;3.60;;;;;;;19.48;100.00;98880.00;4417472;32;20038;-69
2022/06/26 03:54:57;;;;;;;7.70;3.62;;;;;;;19.43;100.00;98871.91;4417455;32;20151;-69
2022/06/26 03:57:23;;;;;;;5.68;3.45;;;;;;;19.49;100.00;98876.12;4416732;32;20081;-70
2022/06/26 03:59:50;;;;;;;6.75;3.75;;;;;;;19.50;100.00;98883.22;4401798;32;20034;-69
2022/06/26 04:02:16;;;;;;;5.35;3.30;;;;;;;19.58;100.00;98879.72;4417305;32;20057;-69
2022/06/26 04:04:45;;;;;;;8.23;3.87;;;;;;;19.58;100.00;98879.72;4417287;32;20038;-70
2022/06/26 04:07:12;;;;;;;7.60;4.12;;;;;;;19.63;100.00;98877.97;4417336;32;20086;-70
2022/06/26 04:09:38;;;;;;;4.82;3.30;;;;;;;19.71;100.00;98879.94;4415944;32;20416;-71
2022/06/26 04:12:04;;;;;;;10.57;3.97;;;;;;;19.41;100.00;98841.41;4417193;32;20054;-70
2022/06/26 04:14:30;;;;;;;9.38;2.95;;;;;;;19.64;100.00;98871.38;4417113;32;20038;-70
2022/06/26 04:16:56;;;;;;;3.80;3.37;;;;;;;19.70;100.00;98886.53;4417282;32;20065;-70
2022/06/26 04:19:23;;;;;;;4.62;3.37;;;;;;;19.64;100.00;98866.75;4417285;32;20208;-71
2022/06/26 04:21:49;;;;;;;7.37;3.33;;;;;;;19.82;100.00;98892.25;4415165;32;20394;-70
2022/06/26 04:24:15;;;;;;;8.02;3.37;;;;;;;19.58;100.00;98857.87;4417060;32;20127;-70
2022/06/26 04:26:42;;;;;;;3.72;3.42;;;;;;;19.87;100.00;98892.09;4416801;32;20034;-70
2022/06/26 04:29:07;;;;;;;9.07;3.72;;;;;;;19.88;100.00;98885.53;4416874;32;20042;-70
2022/06/26 04:31:35;;;;;;;12.55;4.55;;;;;;;19.93;100.00;98895.50;4415965;32;20073;-69
2022/06/26 04:34:01;;;;;;;7.40;4.50;;;;;;;19.84;100.00;98876.34;4416215;32;20038;-70
2022/06/26 04:36:27;;;;;;;4.30;3.65;;;;;;;19.98;100.00;98891.84;4416877;32;20081;-70
2022/06/26 04:38:53;;;;;;;3.67;3.37;;;;;;;20.09;100.00;98888.50;4416948;32;20111;-70
2022/06/26 04:41:31;;;;;;;4.37;2.95;;;;;;;19.98;100.00;98859.03;4414805;32;20050;-70
2022/06/26 04:43:57;;;;;;;5.57;3.22;;;;;;;20.22;100.00;98903.16;4414836;32;20380;-70
2022/06/26 04:46:24;;;;;;;5.55;3.22;;;;;;;20.32;100.00;98902.06;4416695;32;20085;-70
2022/06/26 04:48:51;;;;;;;8.43;3.45;;;;;;;20.12;100.00;98862.47;4416521;32;20049;-69
2022/06/26 04:51:17;;;;;;;3.97;3.03;;;;;;;20.31;100.00;98895.81;4416530;32;20113;-71
2022/06/26 04:53:45;;;;;;;6.75;3.12;;;;;;;20.26;100.00;98887.75;4416543;32;20042;-71
2022/06/26 04:56:11;;;;;;;10.13;3.15;;;;;;;20.45;100.00;98922.19;4413498;32;20397;-70
2022/06/26 04:58:38;;;;;;;3.97;2.97;;;;;;;20.48;100.00;98913.38;4415823;32;20959;-71
2022/06/26 05:01:04;;;;;;;3.50;3.20;;;;;;;20.53;100.00;98915.94;4416493;32;20050;-71
2022/06/26 05:03:31;;;;;;;3.78;3.22;;;;;;;20.64;100.00;98914.53;4416049;32;20065;-72
2022/06/26 05:05:57;;;;;;;5.47;2.97;;;;;;;20.65;100.00;98913.44;4416233;32;20048;-72
2022/06/26 05:08:29;;;;;;;5.20;2.92;;;;;;;20.73;100.00;98916.50;4415352;32;20387;-72
2022/06/26 05:10:55;;;;;;;10.73;3.00;;;;;;;20.60;100.00;98880.72;4416472;32;20485;-72
2022/06/26 05:13:21;;;;;;;4.97;3.08;;;;;;;20.90;100.00;98924.75;4416299;32;20042;-72
2022/06/26 05:15:48;;;;;;;3.53;2.90;;;;;;;20.86;100.00;98926.50;4414488;32;20337;-72
2022/06/26 05:18:15;;;;;;;8.75;3.30;;;;;;;20.80;100.00;98900.41;4414989;32;20470;-73
2022/06/26 05:20:40;;;;;;;3.08;2.78;;;;;;;21.04;100.00;98932.78;4402201;32;20038;-73
2022/06/26 05:23:09;;;;;;;8.07;3.37;;;;;;;21.12;100.00;98925.69;4416462;32;20050;-73
2022/06/26 05:25:36;;;;;;;3.67;2.70;;;;;;;21.19;100.00;98931.50;4416250;32;20440;-72
2022/06/26 05:28:02;;;;;;;4.75;3.00;;;;;;;21.18;100.00;98927.16;4414633;32;20092;-72
2022/06/26 05:30:29;;;;;;;9.55;3.20;;;;;;;21.08;100.00;98906.38;4414898;32;20060;-73
2022/06/26 05:32:58;;;;;;;6.40;3.10;;;;;;;21.34;100.00;98936.47;4416052;32;20099;-69
2022/06/26 05:35:24;;;;;;;6.03;3.22;;;;;;;21.21;100.00;98904.59;4416358;32;20080;-72
2022/06/26 05:37:50;;;;;;;3.35;3.05;;;;;;;21.48;100.00;98944.56;4415770;32;20038;-71
2022/06/26 05:40:16;;;;;;;3.53;3.25;;;;;;;21.32;100.00;98910.56;4415964;32;20053;-72
2022/06/26 05:42:42;;;;;;;6.93;3.20;;;;;;;21.55;100.00;98955.00;4413587;32;20043;-73
2022/06/26 05:45:15;;;;;;;2.70;2.50;;;;;;;21.38;100.00;98918.28;4415692;32;20361;-72
2022/06/26 05:47:42;;;;;;;7.75;2.83;;;;;;;21.52;100.00;98926.34;4416069;32;20102;-72
2022/06/26 05:50:16;;;;;;;17.02;3.62;;;;;;;21.79;100.00;98956.41;4416402;32;20034;-73
2022/06/26 05:52:41;;;;;;;5.20;2.78;;;;;;;21.83;100.00;98957.37;4414646;32;20393;-72
2022/06/26 05:55:10;;;;;;;15.50;3.55;;;;;;;21.68;100.00;98923.06;4415863;32;20081;-72
2022/06/26 05:57:36;;;;;;;6.22;3.92;;;;;;;21.73;100.00;98918.25;4401561;32;20054;-73
2022/06/26 06:00:04;;;;;;;13.52;3.20;;;;;;;21.86;100.00;98929.31;4416018;32;20034;-73
2022/06/26 06:02:30;;;;;;;6.35;3.50;;;;;;;22.16;100.00;98962.25;4415737;32;20062;-72
2022/06/26 06:04:57;;;;;;;12.88;2.90;;;;;;;22.15;100.00;98947.75;4412247;32;20085;-73
2022/06/26 06:07:23;;;;;;;8.23;3.10;;;;;;;22.31;100.00;98961.75;4415848;32;20148;-72
2022/06/26 06:09:49;;;;;;;4.70;3.20;;;;;;;22.41;100.00;98975.09;4416389;32;20077;-72
2022/06/26 06:12:15;;;;;;;3.25;2.60;;;;;;;22.38;100.00;98973.00;4418800;32;20107;-71
2022/06/26 06:14:41;;;;;;;8.10;2.83;;;;;;;22.23;100.00;98943.38;4403239;32;20041;-72
2022/06/26 06:19:52;;;;;;;5.60;3.40;;;;;;;22.57;100.00;98966.31;4418946;32;20047;-71
2022/06/26 06:22:19;;;;;;;9.30;3.40;;;;;;;22.46;100.00;98941.97;4417469;32;20047;-72
2022/06/26 06:24:45;;;;;;;5.30;2.80;;;;;;;22.58;100.00;98940.50;4418390;32;20484;-72
2022/06/26 06:27:12;;;;;;;3.55;3.25;;;;;;;22.88;100.00;98984.34;4418634;32;20420;-71
2022/06/26 06:29:38;;;;;;;4.03;2.72;;;;;;;22.92;100.00;98974.34;4418470;32;20114;-72
2022/06/26 06:32:04;;;;;;;8.05;2.83;;;;;;;22.95;100.00;98984.66;4418677;32;20034;-72
2022/06/26 06:34:31;;;;;;;3.80;3.47;;;;;;;23.01;100.00;98984.12;4416916;32;20053;-72
2022/06/26 06:36:59;;;;;;;2.60;2.50;;;;;;;22.89;100.00;98958.53;4418709;32;20160;-71
2022/06/26 06:39:28;;;;;;;3.03;2.80;;;;;;;23.07;100.00;98960.03;4418574;32;20034;-72
2022/06/26 06:41:55;;;;;;;2.95;2.75;;;;;;;23.29;100.00;98993.78;4418229;32;20364;-71
2022/06/26 06:44:21;;;;;;;6.07;2.67;;;;;;;23.40;100.00;99000.47;4416321;32;20033;-72
2022/06/26 06:46:49;;;;;;;3.20;2.90;;;;;;;23.56;100.00;99004.22;4418526;32;20054;-71
2022/06/26 06:49:19;;;;;;;12.60;3.72;;;;;;;23.55;100.00;98997.13;4418030;32;20406;-71
2022/06/26 06:51:46;;;;;;;2.70;2.50;;;;;;;23.62;100.00;99006.78;4416951;32;20365;-72
2022/06/26 06:54:12;;;;;;;5.70;2.83;;;;;;;23.76;100.00;99001.78;4414958;32;20026;-71
2022/06/26 06:56:38;;;;;;;5.62;3.03;;;;;;;23.87;100.00;99002.19;4415465;32;20068;-71
2022/06/26 06:59:04;;;;;;;5.15;2.65;;;;;;;23.71;100.00;98971.75;4416441;32;20582;-70
2022/06/26 07:01:30;;;;;;;2.92;2.67;;;;;;;24.09;100.00;98998.22;4401150;32;20384;-70
2022/06/26 07:04:00;;;;;;;5.68;2.85;;;;;;;24.11;100.00;99006.97;4411177;32;20034;-71
2022/06/26 07:06:26;;;;;;;5.10;2.80;;;;;;;24.13;100.00;98999.16;4408115;32;20039;-70
2022/06/26 07:08:52;;;;;;;3.20;2.90;;;;;;;24.17;100.00;99004.78;4412557;32;20360;-70
2022/06/26 07:11:19;;;;;;;4.87;2.70;;;;;;;24.25;100.00;99003.88;4412466;32;20095;-71
2022/06/26 07:13:45;;;;;;;6.00;2.65;;;;;;;24.25;100.00;99004.69;4409794;32;20046;-71
2022/06/26 07:16:11;;;;;;;3.40;2.45;;;;;;;24.36;100.00;99012.50;4417075;32;20050;-71
2022/06/26 07:18:38;;;;;;;8.05;2.92;;;;;;;24.54;100.00;99008.38;4414788;32;20583;-72
2022/06/26 07:21:04;;;;;;;7.78;2.70;;;;;;;24.65;100.00;99014.25;4401601;32;20077;-72
2022/06/26 07:23:30;;;;;;;12.25;2.87;;;;;;;24.45;100.00;98972.72;4415834;32;20075;-70
2022/06/26 07:25:57;;;;;;;7.93;2.62;;;;;;;24.60;100.00;98987.78;4403630;32;20390;-71
2022/06/26 07:28:26;;;;;;;2.67;2.37;;;;;;;24.78;100.00;99009.53;4415585;32;20183;-72
2022/06/26 07:30:52;;;;;;;4.87;2.50;;;;;;;24.63;100.00;98973.28;4417699;32;20038;-72
2022/06/26 07:36:04;;;;;;;11.20;2.80;;;;;;;24.73;100.00;98976.75;4415479;32;20095;-74
2022/06/26 07:38:31;;;;;;;4.97;2.60;;;;;;;24.77;100.00;98977.66;4416289;32;20061;-71
2022/06/26 07:40:57;;;;;;;4.12;3.00;;;;;;;24.71;100.00;98985.34;4401325;32;20066;-70
2022/06/26 07:43:22;;;;;;;7.75;2.72;;;;;;;25.01;100.00;99005.16;4414554;32;20112;-70
2022/06/26 07:45:49;;;;;;;3.87;2.83;;;;;;;24.88;100.00;98989.81;4417492;32;20053;-71
2022/06/26 07:48:15;;;;;;;2.72;2.00;;;;;;;25.07;100.00;99013.19;4417717;32;20106;-73
2022/06/26 07:50:42;;;;;;;6.40;2.60;;;;;;;25.18;100.00;99006.06;4415537;32;20416;-72
2022/06/26 07:53:09;;;;;;;3.05;2.75;;;;;;;25.25;100.00;99014.53;4416352;32;20349;-72
2022/06/26 07:55:42;;;;;;;5.60;2.72;;;;;;;25.24;100.00;98974.38;4416628;32;20093;-71
2022/06/26 07:58:08;;;;;;;3.28;2.72;;;;;;;25.52;100.00;99012.19;4414480;32;20440;-71
2022/06/26 08:00:41;;;;;;;4.75;2.62;;;;;;;25.52;100.00;99012.19;4417002;32;20086;-70
2022/06/26 08:03:10;;;;;;;6.30;2.47;;;;;;;25.51;100.00;99013.31;4415651;32;20034;-70
2022/06/26 08:05:37;;;;;;;2.62;2.30;;;;;;;25.63;100.00;99007.75;4416980;32;20133;-70
2022/06/26 08:08:04;;;;;;;5.37;2.62;;;;;;;25.69;100.00;99000.06;4402160;32;20139;-75
2022/06/26 08:10:31;;;;;;;3.83;2.58;;;;;;;25.77;100.00;99012.06;4413323;32;20164;-71
2022/06/26 08:12:57;;;;;;;9.50;2.62;;;;;;;25.61;100.00;98996.28;4414779;32;20034;-71
2022/06/26 08:15:23;;;;;;;5.18;2.45;;;;;;;25.63;100.00;99007.75;4403345;32;20518;-70
2022/06/26 08:17:51;;;;;;;4.28;2.50;;;;;;;25.71;100.00;99006.81;4416983;32;20064;-70
2022/06/26 08:20:25;;;;;;;7.05;2.58;;;;;;;25.65;100.00;99005.44;4415776;32;20075;-72
2022/06/26 08:22:52;;;;;;;6.18;2.50;;;;;;;25.69;100.00;99009.13;4416441;32;20411;-71
2022/06/26 08:25:18;;;;;;;3.37;2.47;;;;;;;25.78;100.00;99010.91;4415793;32;20054;-71
2022/06/26 08:27:44;;;;;;;7.25;2.60;;;;;;;25.75;100.00;99004.13;4413554;32;20061;-71
2022/06/26 08:30:10;;;;;;;3.58;3.00;;;;;;;25.85;100.00;99019.41;4416494;32;20050;-72
2022/06/26 08:32:38;;;;;;;5.20;2.45;;;;;;;25.83;100.00;98994.09;4400075;32;20077;-70
2022/06/26 08:35:06;;;;;;;6.90;2.50;;;;;;;26.03;100.00;99011.63;4413729;32;20050;-70
2022/06/26 08:37:32;;;;;;;6.45;2.90;;;;;;;25.95;100.00;99007.84;4416021;32;20054;-71
2022/06/26 08:39:58;;;;;;;13.05;3.03;;;;;;;25.95;100.00;99018.87;4416820;32;20030;-73
2022/06/26 08:42:26;;;;;;;5.65;2.50;;;;;;;25.79;100.00;98983.00;4415929;32;20147;-71
2022/06/26 08:44:57;;;;;;;8.30;2.78;;;;;;;26.07;100.00;99021.59;4412818;32;20485;-69
2022/06/26 08:47:24;;;;;;;4.72;2.60;;;;;;;25.76;100.00;98971.87;4402536;32;20449;-72
2022/06/26 08:49:51;;;;;;;6.50;2.60;;;;;;;26.00;100.00;99010.37;4416696;32;20384;-70
2022/06/26 08:52:20;;;;;;;14.77;2.80;;;;;;;26.18;100.00;99015.56;4414653;32;20056;-71
2022/06/26 08:54:48;;;;;;;5.00;2.92;;;;;;;26.22;100.00;99016.47;4413845;32;20056;-70
2022/06/26 08:57:15;;;;;;;7.70;2.97;;;;;;;26.16;100.00;99017.87;4414414;32;20132;-71
2022/06/26 08:59:42;;;;;;;5.90;2.83;;;;;;;26.16;100.00;99007.63;4401766;32;20114;-68
2022/06/26 09:02:08;;;;;;;5.00;3.30;;;;;;;26.16;100.00;98993.03;4415903;32;20085;-68
2022/06/26 09:04:36;;;;;;;25.83;3.35;;;;;;;26.40;100.00;99016.91;4422621;32;20145;-68
2022/06/26 09:07:05;;;;;;;11.07;3.28;;;;;;;26.37;100.00;99023.13;4392900;32;20063;-69
2022/06/26 09:09:31;;;;;;;10.70;3.00;;;;;;;26.25;100.00;99015.75;4406803;32;20051;-69
2022/06/26 18:04:51;;;;;;;2.65;1.90;;;;;;;27.29;87.75;98957.37;4433897;32;20877;-70
2022/06/26 18:07:19;;;;;;;9.20;2.17;;;;;;;27.29;87.75;98957.37;4417291;32;20065;-66
2022/06/26 18:09:45;;;;;;;5.68;2.65;;;;;;;26.75;93.42;98961.75;4419153;32;20034;-67
2022/06/26 18:12:12;;;;;;;8.10;2.55;;;;;;;26.70;95.93;98970.31;4420646;32;20162;-67
2022/06/26 18:14:39;;;;;;;6.37;2.83;;;;;;;26.40;96.96;98945.12;4419674;32;20042;-67
2022/06/26 18:17:07;;;;;;;4.10;2.75;;;;;;;26.27;97.63;98936.16;4419348;32;20166;-66
2022/06/26 18:19:35;;;;;;;3.33;2.37;;;;;;;26.38;99.37;98964.81;4411754;32;20104;-68
2022/06/26 18:22:03;;;;;;;3.67;2.55;;;;;;;26.30;100.00;98974.09;4413391;32;20054;-66
2022/06/26 18:24:36;;;;;;;4.28;2.28;;;;;;;26.20;100.00;98977.34;4413575;32;20336;-67
2022/06/26 18:27:03;;;;;;;6.75;2.17;;;;;;;26.08;100.00;98973.53;4412767;32;20094;-66
2022/06/26 18:29:30;;;;;;;5.30;2.80;;;;;;;25.99;100.00;98975.69;4421813;32;20060;-67
2022/06/26 18:31:56;;;;;;;8.88;2.62;;;;;;;25.89;100.00;98976.16;4421248;32;20064;-67
2022/06/26 18:34:23;;;;;;;9.68;2.70;;;;;;;25.61;100.00;98949.44;4410705;32;21396;-67
2022/06/26 18:36:49;;;;;;;6.45;2.70;;;;;;;25.49;100.00;98958.53;4412111;32;20068;-68
2022/06/26 18:39:16;;;;;;;7.10;2.50;;;;;;;25.41;100.00;98966.97;4412938;32;20053;-67
2022/06/26 18:41:43;;;;;;;7.18;2.25;;;;;;;25.51;100.00;98988.50;4412609;32;20084;-67
2022/06/26 18:44:09;;;;;;;10.85;3.45;;;;;;;25.21;100.00;98958.53;4412399;32;20367;-67
2022/06/26 18:46:35;;;;;;;2.60;2.22;;;;;;;25.31;100.00;98996.63;4412908;32;20035;-67
2022/06/26 18:49:03;;;;;;;8.10;2.50;;;;;;;24.99;100.00;98963.41;4412960;32;20428;-67
2022/06/26 18:51:29;;;;;;;2.42;2.22;;;;;;;25.11;100.00;99008.59;4415449;32;20022;-66
2022/06/26 18:53:55;;;;;;;6.90;2.53;;;;;;;25.01;100.00;99005.16;4424386;32;20064;-68
2022/06/26 18:56:22;;;;;;;3.53;3.15;;;;;;;24.91;100.00;99005.63;4423497;32;20050;-68
2022/06/26 18:58:48;;;;;;;9.10;6.60;;;;;;;24.82;100.00;99002.19;4419424;32;20050;-67
2022/06/26 19:01:15;;;;;;;3.30;3.00;;;;;;;24.58;100.00;98976.28;4421368;32;20085;-72
2022/06/26 19:03:42;;;;;;;6.25;2.78;;;;;;;24.52;100.00;98985.88;4427594;32;20034;-67
2022/06/26 19:06:08;;;;;;;4.22;2.80;;;;;;;24.61;100.00;99010.59;4435218;32;20030;-68
2022/06/26 19:08:34;;;;;;;2.60;2.40;;;;;;;24.36;100.00;98991.28;4435297;32;20054;-68
2022/06/26 19:11:01;;;;;;;8.00;3.58;;;;;;;24.29;100.00;98989.09;4426820;32;20058;-68
2022/06/26 19:16:13;;;;;;;18.67;2.87;;;;;;;24.33;100.00;99019.47;4426376;32;20097;-68
2022/06/26 19:18:40;;;;;;;3.20;2.50;;;;;;;24.04;100.00;98991.00;4425963;32;20465;-68
2022/06/26 19:21:06;;;;;;;12.05;3.22;;;;;;;24.19;100.00;99030.00;4425870;32;20096;-67
2022/06/26 19:23:36;;;;;;;2.53;2.33;;;;;;;24.15;100.00;99029.06;4409710;32;20058;-66
2022/06/26 19:26:02;;;;;;;7.15;2.95;;;;;;;24.07;100.00;99028.03;4422283;32;20361;-67
2022/06/26 19:28:28;;;;;;;6.28;2.75;;;;;;;23.96;100.00;99032.34;4410385;32;20458;-68
2022/06/26 19:30:55;;;;;;;7.60;2.80;;;;;;;23.94;100.00;99035.44;4423946;32;20051;-70
2022/06/26 19:33:22;;;;;;;7.85;3.33;;;;;;;23.86;100.00;99033.59;4421981;32;20331;-69
2022/06/26 19:35:48;;;;;;;6.10;3.17;;;;;;;23.85;100.00;99045.72;4424590;32;20069;-67
2022/06/26 19:38:21;;;;;;;3.83;2.83;;;;;;;23.82;100.00;99038.94;4425406;32;20064;-66
2022/06/26 19:40:48;;;;;;;6.22;3.37;;;;;;;23.55;100.00;99002.63;4424689;32;20068;-67
2022/06/26 19:43:14;;;;;;;3.10;2.80;;;;;;;23.54;100.00;99012.00;4415905;32;20071;-67
2022/06/26 19:45:41;;;;;;;5.30;3.12;;;;;;;23.51;100.00;99015.41;4416442;32;20038;-68
2022/06/26 19:48:07;;;;;;;7.95;3.20;;;;;;;23.64;100.00;99048.47;4416465;32;20375;-68
2022/06/26 19:50:43;;;;;;;4.62;3.50;;;;;;;23.62;100.00;99051.53;4417410;32;20164;-69
2022/06/26 19:53:10;;;;;;;5.00;3.35;;;;;;;23.42;100.00;99025.66;4418972;32;20096;-67
2022/06/26 19:55:37;;;;;;;3.97;2.70;;;;;;;23.58;100.00;99045.94;4421855;32;20126;-67
2022/06/26 19:58:05;;;;;;;6.97;2.55;;;;;;;23.35;100.00;99020.72;4418598;32;20078;-66
2022/06/26 20:00:33;;;;;;;3.22;3.03;;;;;;;23.53;100.00;99054.38;4422432;32;20046;-67
2022/06/26 20:05:47;;;;;;;3.97;2.95;;;;;;;23.29;100.00;99024.00;4423677;32;20068;-67
2022/06/26 20:08:14;;;;;;;4.35;3.95;;;;;;;23.45;100.00;99052.47;4425800;32;20093;-67
2022/06/26 20:10:40;;;;;;;4.30;3.15;;;;;;;22.77;100.00;98951.81;4425141;32;20027;-68
2022/06/26 20:13:07;;;;;;;6.00;3.12;;;;;;;23.40;100.00;99055.44;4422581;32;20043;-66
2022/06/26 20:15:35;;;;;;;9.13;2.72;;;;;;;23.18;100.00;99027.16;4423493;32;20134;-69
2022/06/26 20:18:03;;;;;;;2.60;2.40;;;;;;;23.16;100.00;99021.19;4422963;32;20038;-68
2022/06/26 20:20:30;;;;;;;10.80;4.62;;;;;;;23.36;100.00;99060.00;4408681;32;20339;-67
2022/06/26 20:22:58;;;;;;;7.25;4.40;;;;;;;23.27;100.00;99051.81;4417515;32;20058;-68
2022/06/26 20:25:25;;;;;;;6.87;3.00;;;;;;;23.29;100.00;99059.72;4422061;32;20069;-66
2022/06/26 20:27:52;;;;;;;4.55;2.97;;;;;;;23.21;100.00;99053.12;4422643;32;20195;-68
2022/06/26 20:30:19;;;;;;;3.50;2.90;;;;;;;23.21;100.00;99059.47;4425717;32;20410;-69